createdAt,value
2023-01-29T00:00:35.917Z,100664.28
2023-01-29T00:03:02.324Z,100649.47
2023-01-29T00:05:28.866Z,100649.47
2023-01-29T00:07:56.579Z,100648.66
2023-01-29T00:10:24.714Z,100645.25
2023-01-29T00:12:51.650Z,100644.31
2023-01-29T00:15:20.065Z,100648.69
2023-01-29T00:17:46.682Z,100645.22
2023-01-29T00:20:13.300Z,100651.28
2023-01-29T00:22:39.800Z,100641.66
2023-01-29T00:25:06.799Z,100633.78
2023-01-29T00:27:33.158Z,100636.41
2023-01-29T00:30:19.329Z,100642.50
2023-01-29T00:32:46.060Z,100632.94
2023-01-29T00:35:12.495Z,100626.81
2023-01-29T00:37:38.954Z,100619.06
2023-01-29T00:40:06.045Z,100623.44
2023-01-29T00:42:51.027Z,100619.94
2023-01-29T00:45:17.450Z,100608.59
2023-01-29T00:47:43.810Z,100602.44
2023-01-29T00:50:11.727Z,100606.81
2023-01-29T00:52:40.747Z,100605.97
2023-01-29T00:55:08.685Z,100605.13
2023-01-29T00:57:35.666Z,100597.31
2023-01-29T01:00:03.476Z,100600.00
2023-01-29T01:02:48.470Z,100594.78
2023-01-29T01:05:20.174Z,100592.16
2023-01-29T01:07:55.698Z,100590.41
2023-01-29T01:10:28.896Z,100587.78
2023-01-29T01:13:03.740Z,100592.13
2023-01-29T01:15:38.529Z,100601.81
2023-01-29T01:18:05.549Z,100597.47
2023-01-29T01:20:34.708Z,100590.50
2023-01-29T01:23:01.121Z,100584.38
2023-01-29T01:25:29.300Z,100586.13
2023-01-29T01:27:58.028Z,100579.97
2023-01-29T01:30:25.261Z,100587.03
2023-01-29T01:32:52.293Z,100592.31
2023-01-29T01:35:18.927Z,100590.56
2023-01-29T01:37:45.343Z,100598.41
2023-01-29T01:40:19.817Z,100594.06
2023-01-29T01:42:54.626Z,100591.44
2023-01-29T01:45:27.134Z,100602.78
2023-01-29T01:48:16.397Z,100602.78
2023-01-29T01:50:42.706Z,100601.13
2023-01-29T01:53:16.433Z,100606.41
2023-01-29T01:55:52.934Z,100602.88
2023-01-29T01:58:47.809Z,100609.84
2023-01-29T02:01:14.547Z,100603.84
2023-01-29T02:04:07.727Z,100597.75
2023-01-29T02:06:55.676Z,100585.53
2023-01-29T02:09:38.694Z,100586.41
2023-01-29T02:12:16.861Z,100595.13
2023-01-29T02:14:44.388Z,100597.75
2023-01-29T02:17:16.551Z,100586.38
2023-01-29T02:19:52.128Z,100580.28
2023-01-29T02:22:28.187Z,100575.09
2023-01-29T02:25:15.033Z,100586.44
2023-01-29T02:28:06.313Z,100586.47
2023-01-29T02:30:45.359Z,100584.72
2023-01-29T02:33:41.391Z,100581.28
2023-01-29T02:36:46.673Z,100577.78
2023-01-29T02:39:25.637Z,100578.63
2023-01-29T02:42:13.096Z,100576.88
2023-01-29T02:44:43.638Z,100583.03
2023-01-29T02:47:23.063Z,100583.00
2023-01-29T02:50:33.939Z,100576.88
2023-01-29T02:53:12.692Z,100578.63
2023-01-29T02:55:42.049Z,100581.22
2023-01-29T02:58:17.992Z,100585.63
2023-01-29T03:00:47.779Z,100596.94
2023-01-29T03:03:26.754Z,100599.56
2023-01-29T03:06:08.697Z,100596.94
2023-01-29T03:08:45.477Z,100597.84
2023-01-29T03:11:13.993Z,100589.19
2023-01-29T03:13:49.534Z,100586.59
2023-01-29T03:16:33.310Z,100591.84
2023-01-29T03:19:13.543Z,100593.59
2023-01-29T03:22:01.833Z,100601.44
2023-01-29T03:25:01.010Z,100600.59
2023-01-29T03:27:52.564Z,100598.00
2023-01-29T03:30:39.173Z,100601.53
2023-01-29T03:33:10.027Z,100607.63
2023-01-29T03:35:48.592Z,100618.06
2023-01-29T03:38:15.873Z,100620.66
2023-01-29T03:41:21.733Z,100635.44
2023-01-29T03:43:53.360Z,100639.75
2023-01-29T03:46:29.704Z,100631.91
2023-01-29T03:49:00.778Z,100641.50
2023-01-29T03:51:38.670Z,100634.53
2023-01-29T03:54:31.044Z,100638.06
2023-01-29T03:57:20.176Z,100631.03
2023-01-29T04:00:04.434Z,100609.19
2023-01-29T04:02:38.887Z,100617.03
2023-01-29T04:05:11.794Z,100607.53
2023-01-29T04:07:42.716Z,100599.69
2023-01-29T04:10:29.564Z,100597.13
2023-01-29T04:13:04.052Z,100592.78
2023-01-29T04:15:36.391Z,100578.00
2023-01-29T04:18:02.955Z,100571.00
2023-01-29T04:20:30.005Z,100566.66
2023-01-29T04:22:56.612Z,100567.56
2023-01-29T04:25:28.955Z,100571.06
2023-01-29T04:28:14.177Z,100576.25
2023-01-29T04:30:40.570Z,100582.34
2023-01-29T04:33:23.232Z,100580.59
2023-01-29T04:36:07.012Z,100566.66
2023-01-29T04:38:47.522Z,100574.53
2023-01-29T04:41:24.575Z,100582.41
2023-01-29T04:44:12.562Z,100590.22
2023-01-29T04:46:58.535Z,100581.53
2023-01-29T04:49:54.528Z,100571.03
2023-01-29T04:52:58.725Z,100582.22
2023-01-29T04:55:28.178Z,100564.78
2023-01-29T04:58:01.141Z,100568.28
2023-01-29T05:00:32.631Z,100571.75
2023-01-29T05:03:01.585Z,100566.53
2023-01-29T05:05:30.148Z,100564.72
2023-01-29T05:07:58.258Z,100572.63
2023-01-29T05:10:25.309Z,100586.59
2023-01-29T05:12:58.648Z,100577.81
2023-01-29T05:15:38.312Z,100583.88
2023-01-29T05:18:08.900Z,100577.72
2023-01-29T05:20:39.099Z,100561.16
2023-01-29T05:23:10.893Z,100569.00
2023-01-29T05:25:37.592Z,100578.53
2023-01-29T05:28:04.273Z,100569.75
2023-01-29T05:30:32.366Z,100580.16
2023-01-29T05:32:58.936Z,100564.41
2023-01-29T05:35:25.962Z,100573.06
2023-01-29T05:37:52.444Z,100568.66
2023-01-29T05:40:19.186Z,100564.28
2023-01-29T05:42:45.855Z,100548.56
2023-01-29T05:45:12.338Z,100538.97
2023-01-29T05:47:38.715Z,100535.41
2023-01-29T05:50:06.310Z,100525.81
2023-01-29T05:52:32.767Z,100523.22
2023-01-29T05:54:59.128Z,100516.28
2023-01-29T05:57:25.666Z,100518.03
2023-01-29T05:59:52.060Z,100531.03
2023-01-29T06:02:18.476Z,100532.69
2023-01-29T06:04:45.138Z,100537.91
2023-01-29T06:07:11.495Z,100544.81
2023-01-29T06:09:38.047Z,100529.94
2023-01-29T06:12:06.177Z,100520.28
2023-01-29T06:14:32.583Z,100526.34
2023-01-29T06:16:59.322Z,100538.53
2023-01-29T06:19:25.706Z,100550.66
2023-01-29T06:21:52.222Z,100557.38
2023-01-29T06:24:18.650Z,100556.53
2023-01-29T06:26:45.261Z,100553.13
2023-01-29T06:29:11.624Z,100541.81
2023-01-29T06:31:39.464Z,100533.94
2023-01-29T06:34:09.733Z,100549.53
2023-01-29T06:36:36.385Z,100555.56
2023-01-29T06:39:03.790Z,100552.06
2023-01-29T06:41:31.300Z,100554.69
2023-01-29T06:43:57.750Z,100563.44
2023-01-29T06:46:24.395Z,100558.22
2023-01-29T06:48:50.875Z,100560.63
2023-01-29T06:51:17.675Z,100570.94
2023-01-29T06:53:46.200Z,100561.25
2023-01-29T06:56:13.157Z,100570.09
2023-01-29T06:58:39.753Z,100570.88
2023-01-29T07:01:15.549Z,100576.06
2023-01-29T07:03:51.915Z,100587.41
2023-01-29T07:06:19.250Z,100598.69
2023-01-29T07:08:46.011Z,100595.16
2023-01-29T07:11:12.934Z,100604.75
2023-01-29T07:13:39.386Z,100602.41
2023-01-29T07:16:06.970Z,100601.56
2023-01-29T07:18:33.586Z,100618.19
2023-01-29T07:21:04.643Z,100597.06
2023-01-29T07:23:31.134Z,100602.22
2023-01-29T07:26:01.230Z,100597.91
2023-01-29T07:28:27.760Z,100587.28
2023-01-29T07:31:00.210Z,100583.00
2023-01-29T07:33:27.133Z,100583.78
2023-01-29T07:35:53.656Z,100575.88
2023-01-29T07:38:20.496Z,100582.81
2023-01-29T07:40:47.133Z,100582.69
2023-01-29T07:43:13.606Z,100590.13
2023-01-29T07:45:40.352Z,100607.78
2023-01-29T07:48:09.769Z,100604.44
2023-01-29T07:50:36.547Z,100604.69
2023-01-29T07:53:03.295Z,100604.69
2023-01-29T07:55:30.231Z,100606.34
2023-01-29T07:58:01.245Z,100618.47
2023-01-29T08:00:28.377Z,100613.06
2023-01-29T08:03:02.199Z,100611.13
2023-01-29T08:05:28.629Z,100593.38
2023-01-29T08:08:06.192Z,100581.09
2023-01-29T08:10:34.299Z,100578.91
2023-01-29T08:13:02.461Z,100590.09
2023-01-29T08:15:28.996Z,100591.81
2023-01-29T08:17:58.033Z,100596.06
2023-01-29T08:20:42.359Z,100590.72
2023-01-29T08:23:14.376Z,100571.31
2023-01-29T08:25:41.496Z,100576.56
2023-01-29T08:28:08.620Z,100581.75
2023-01-29T08:30:36.155Z,100583.41
2023-01-29T08:33:04.434Z,100578.06
2023-01-29T08:35:31.336Z,100581.47
2023-01-29T08:38:00.196Z,100575.25
2023-01-29T08:40:28.652Z,100579.44
2023-01-29T08:43:03.581Z,100580.75
2023-01-29T08:45:35.176Z,100588.53
2023-01-29T08:48:01.982Z,100592.75
2023-01-29T08:50:30.608Z,100590.03
2023-01-29T08:52:59.109Z,100582.03
2023-01-29T08:55:26.087Z,100583.66
2023-01-29T08:57:52.621Z,100574.47
2023-01-29T09:00:19.529Z,100586.34
2023-01-29T09:02:45.995Z,100573.41
2023-01-29T09:05:12.554Z,100579.75
2023-01-29T09:07:38.948Z,100582.25
2023-01-29T09:10:05.817Z,100580.41
2023-01-29T09:12:32.388Z,100582.75
2023-01-29T09:14:58.834Z,100578.66
2023-01-29T09:17:25.337Z,100575.03
2023-01-29T09:19:53.029Z,100564.34
2023-01-29T09:22:20.587Z,100575.94
2023-01-29T09:24:46.977Z,100570.47
2023-01-29T09:27:13.407Z,100572.13
2023-01-29T09:29:39.851Z,100574.00
2023-01-29T09:32:07.042Z,100581.00
2023-01-29T09:34:33.917Z,100577.38
2023-01-29T09:37:00.383Z,100569.94
2023-01-29T09:39:26.817Z,100568.78
2023-01-29T09:42:15.785Z,100542.22
2023-01-29T09:44:42.115Z,100541.50
2023-01-29T09:47:13.831Z,100532.63
2023-01-29T09:49:47.360Z,100532.16
2023-01-29T09:52:58.732Z,100523.19
2023-01-29T09:55:28.876Z,100525.94
2023-01-29T09:58:00.699Z,100519.59
2023-01-29T10:00:33.065Z,100525.66
2023-01-29T10:03:27.283Z,100519.75
2023-01-29T10:06:12.625Z,100520.81
2023-01-29T10:08:58.810Z,100509.25
2023-01-29T10:11:40.575Z,100520.56
2023-01-29T10:14:43.809Z,100506.13
2023-01-29T10:17:35.344Z,100489.66
2023-01-29T10:20:28.016Z,100486.84
2023-01-29T10:22:54.389Z,100484.94
2023-01-29T10:25:22.850Z,100500.38
2023-01-29T10:27:53.114Z,100500.88
2023-01-29T10:30:33.304Z,100499.78
2023-01-29T10:33:04.482Z,100495.44
2023-01-29T10:35:36.210Z,100492.69
2023-01-29T10:38:23.021Z,100497.16
2023-01-29T10:41:08.061Z,100494.47
2023-01-29T10:43:54.703Z,100464.19
2023-01-29T10:46:31.447Z,100462.06
2023-01-29T10:49:10.459Z,100460.88
2023-01-29T10:52:11.752Z,100461.38
2023-01-29T10:55:08.874Z,100457.53
2023-01-29T10:57:50.332Z,100451.69
2023-01-29T11:00:26.402Z,100452.69
2023-01-29T11:02:53.204Z,100447.22
2023-01-29T11:05:23.271Z,100452.88
2023-01-29T11:08:00.884Z,100450.06
2023-01-29T11:10:27.785Z,100442.84
2023-01-29T11:12:56.173Z,100431.66
2023-01-29T11:15:33.307Z,100420.28
2023-01-29T11:18:05.852Z,100421.16
2023-01-29T11:20:33.557Z,100418.56
2023-01-29T11:23:00.302Z,100416.63
2023-01-29T11:25:28.763Z,100409.53
2023-01-29T11:28:02.574Z,100404.50
2023-01-29T11:30:35.595Z,100405.25
2023-01-29T11:33:05.128Z,100404.56
2023-01-29T11:35:33.264Z,100394.72
2023-01-29T11:38:09.321Z,100384.81
2023-01-29T11:40:38.353Z,100377.25
2023-01-29T11:43:23.343Z,100375.56
2023-01-29T11:45:54.111Z,100377.69
2023-01-29T11:48:23.420Z,100363.75
2023-01-29T11:51:00.605Z,100377.25
2023-01-29T11:53:38.807Z,100363.84
2023-01-29T11:56:16.878Z,100364.44
2023-01-29T11:58:45.525Z,100363.47
2023-01-29T12:01:13.124Z,100357.50
2023-01-29T12:03:53.934Z,100345.31
2023-01-29T12:06:33.955Z,100340.78
2023-01-29T12:09:02.589Z,100326.63
2023-01-29T12:11:34.172Z,100311.69
2023-01-29T12:14:22.032Z,100312.56
2023-01-29T12:16:58.584Z,100318.09
2023-01-29T12:19:46.791Z,100311.22
2023-01-29T12:22:16.661Z,100309.38
2023-01-29T12:25:07.204Z,100296.72
2023-01-29T12:27:36.599Z,100304.81
2023-01-29T12:30:15.411Z,100296.75
2023-01-29T12:33:03.820Z,100290.66
2023-01-29T12:35:35.695Z,100295.41
2023-01-29T12:38:02.183Z,100297.19
2023-01-29T12:40:32.851Z,100289.13
2023-01-29T12:43:07.086Z,100285.38
2023-01-29T12:45:36.626Z,100278.03
2023-01-29T12:48:09.959Z,100274.63
2023-01-29T12:50:38.299Z,100276.38
2023-01-29T12:53:07.806Z,100265.72
2023-01-29T12:55:42.353Z,100259.22
2023-01-29T12:58:23.455Z,100243.75
2023-01-29T13:00:54.234Z,100244.38
2023-01-29T13:03:23.377Z,100240.78
2023-01-29T13:06:10.299Z,100243.28
2023-01-29T13:08:46.253Z,100231.91
2023-01-29T13:11:33.620Z,100235.09
2023-01-29T13:14:07.307Z,100226.16
2023-01-29T13:16:40.584Z,100222.91
2023-01-29T13:19:21.137Z,100226.44
2023-01-29T13:21:48.593Z,100227.47
2023-01-29T13:24:19.315Z,100214.72
2023-01-29T13:26:47.650Z,100225.47
2023-01-29T13:29:23.098Z,100222.72
2023-01-29T13:31:52.187Z,100218.00
2023-01-29T13:34:23.128Z,100212.25
2023-01-29T13:36:59.022Z,100207.97
2023-01-29T13:39:44.154Z,100204.84
2023-01-29T13:42:22.725Z,100213.25
2023-01-29T13:44:57.573Z,100194.88
2023-01-29T13:47:27.723Z,100198.19
2023-01-29T13:50:00.166Z,100197.22
2023-01-29T13:52:42.870Z,100189.22
2023-01-29T13:55:26.249Z,100187.06
2023-01-29T13:57:56.164Z,100178.31
2023-01-29T14:00:24.254Z,100182.53
2023-01-29T14:02:59.828Z,100179.66
2023-01-29T14:05:29.401Z,100161.59
2023-01-29T14:08:25.980Z,100148.50
2023-01-29T14:11:15.934Z,100145.25
2023-01-29T14:13:47.424Z,100141.88
2023-01-29T14:16:13.981Z,100137.31
2023-01-29T14:18:57.943Z,100135.44
2023-01-29T14:21:32.020Z,100136.31
2023-01-29T14:24:22.671Z,100123.88
2023-01-29T14:26:55.059Z,100135.19
2023-01-29T14:29:34.854Z,100127.75
2023-01-29T14:32:07.786Z,100137.22
2023-01-29T14:34:41.702Z,100132.19
2023-01-29T14:37:18.764Z,100119.97
2023-01-29T14:39:55.641Z,100124.19
2023-01-29T14:42:37.939Z,100130.50
2023-01-29T14:45:11.417Z,100131.59
2023-01-29T14:47:37.904Z,100132.03
2023-01-29T14:50:29.379Z,100141.94
2023-01-29T14:53:09.057Z,100147.72
2023-01-29T14:55:41.720Z,100140.09
2023-01-29T14:58:15.678Z,100144.84
2023-01-29T15:00:45.723Z,100153.19
2023-01-29T15:03:19.425Z,100154.63
2023-01-29T15:05:48.898Z,100158.06
2023-01-29T15:08:29.977Z,100160.66
2023-01-29T15:11:19.260Z,100156.25
2023-01-29T15:14:24.552Z,100157.88
2023-01-29T15:17:18.026Z,100162.56
2023-01-29T15:19:49.878Z,100165.69
2023-01-29T15:22:18.196Z,100168.91
2023-01-29T15:24:46.584Z,100169.19
2023-01-29T15:27:18.779Z,100170.19
2023-01-29T15:29:56.992Z,100170.69
2023-01-29T15:32:31.076Z,100169.47
2023-01-29T15:34:59.022Z,100172.28
2023-01-29T15:37:31.925Z,100173.19
2023-01-29T15:39:59.797Z,100168.22
2023-01-29T15:42:28.983Z,100172.28
2023-01-29T15:44:55.829Z,100162.22
2023-01-29T15:47:27.933Z,100172.66
2023-01-29T15:49:55.267Z,100163.19
2023-01-29T15:52:27.188Z,100165.28
2023-01-29T15:54:56.338Z,100163.22
2023-01-29T15:57:25.672Z,100156.41
2023-01-29T15:59:56.108Z,100156.75
2023-01-29T16:02:34.691Z,100148.44
2023-01-29T16:05:02.458Z,100145.91
2023-01-29T16:07:29.702Z,100147.44
2023-01-29T16:09:56.960Z,100145.66
2023-01-29T16:12:23.850Z,100148.47
2023-01-29T16:14:51.095Z,100149.84
2023-01-29T16:17:35.297Z,100153.47
2023-01-29T16:20:07.185Z,100144.69
2023-01-29T16:22:36.950Z,100150.88
2023-01-29T16:25:14.721Z,100152.63
2023-01-29T16:27:43.487Z,100155.94
2023-01-29T16:30:15.450Z,100153.47
2023-01-29T16:32:42.103Z,100156.06
2023-01-29T16:35:15.388Z,100147.03
2023-01-29T16:37:46.595Z,100142.16
2023-01-29T16:40:26.892Z,100148.06
2023-01-29T16:43:08.686Z,100148.63
2023-01-29T16:45:35.224Z,100143.03
2023-01-29T16:48:25.664Z,100136.88
2023-01-29T16:51:03.961Z,100142.91
2023-01-29T16:53:30.398Z,100140.44
2023-01-29T16:56:03.612Z,100148.72
2023-01-29T16:58:30.566Z,100136.22
2023-01-29T17:01:11.559Z,100135.28
2023-01-29T17:03:40.715Z,100134.41
2023-01-29T17:06:12.434Z,100132.09
2023-01-29T17:08:42.453Z,100130.97
2023-01-29T17:11:43.986Z,100129.19
2023-01-29T17:14:18.823Z,100133.44
2023-01-29T17:17:01.774Z,100125.81
2023-01-29T17:19:30.055Z,100128.28
2023-01-29T17:21:58.312Z,100135.41
2023-01-29T17:24:28.042Z,100143.34
2023-01-29T17:26:54.611Z,100140.31
2023-01-29T17:29:25.412Z,100137.84
2023-01-29T17:31:52.087Z,100142.41
2023-01-29T17:34:18.625Z,100129.13
2023-01-29T17:36:45.985Z,100147.94
2023-01-29T17:39:21.088Z,100138.91
2023-01-29T17:41:53.305Z,100143.94
2023-01-29T17:44:20.604Z,100144.31
2023-01-29T17:46:47.801Z,100138.59
2023-01-29T17:49:23.417Z,100138.72
2023-01-29T17:51:51.486Z,100131.59
2023-01-29T17:54:18.442Z,100128.41
2023-01-29T17:56:44.959Z,100124.59
2023-01-29T17:59:16.783Z,100127.41
2023-01-29T18:01:43.823Z,100115.03
2023-01-29T18:04:10.881Z,100105.53
2023-01-29T18:06:38.311Z,100106.59
2023-01-29T18:09:05.198Z,100100.84
2023-01-29T18:11:31.975Z,100100.47
2023-01-29T18:13:58.507Z,100096.41
2023-01-29T18:16:28.521Z,100095.34
2023-01-29T18:18:55.100Z,100091.81
2023-01-29T18:21:22.630Z,100076.31
2023-01-29T18:23:49.300Z,100085.91
2023-01-29T18:26:16.864Z,100083.13
2023-01-29T18:28:43.714Z,100087.81
2023-01-29T18:31:10.978Z,100075.47
2023-01-29T18:33:38.632Z,100066.84
2023-01-29T18:36:06.720Z,100069.44
2023-01-29T18:38:34.244Z,100065.13
2023-01-29T18:41:06.253Z,100062.47
2023-01-29T18:43:32.784Z,100061.63
2023-01-29T18:45:59.855Z,100064.06
2023-01-29T18:48:26.576Z,100064.38
2023-01-29T18:50:53.059Z,100075.50
2023-01-29T18:53:19.533Z,100067.03
2023-01-29T18:55:54.749Z,100066.69
2023-01-29T18:58:27.339Z,100066.84
2023-01-29T19:01:07.114Z,100059.69
2023-01-29T19:03:33.569Z,100059.78
2023-01-29T19:06:05.094Z,100060.66
2023-01-29T19:08:31.880Z,100060.72
2023-01-29T19:11:05.497Z,100056.81
2023-01-29T19:13:32.856Z,100049.53
2023-01-29T19:15:59.581Z,100042.94
2023-01-29T19:18:26.831Z,100041.19
2023-01-29T19:20:53.975Z,100030.88
2023-01-29T19:23:22.024Z,100023.88
2023-01-29T19:25:48.419Z,100019.47
2023-01-29T19:28:15.221Z,100008.84
2023-01-29T19:30:41.841Z,100008.78
2023-01-29T19:33:09.784Z,100007.06
2023-01-29T19:35:36.247Z,100002.09
2023-01-29T19:38:04.169Z,99991.59
2023-01-29T19:40:30.655Z,99981.88
2023-01-29T19:42:58.113Z,99989.94
2023-01-29T19:45:37.060Z,99984.31
2023-01-29T19:48:13.612Z,99978.91
2023-01-29T19:50:40.065Z,99972.69
2023-01-29T19:53:06.584Z,99966.72
2023-01-29T19:55:32.971Z,99963.31
2023-01-29T20:01:47.062Z,99945.06
2023-01-29T20:04:13.538Z,99941.41
2023-01-29T20:06:41.148Z,99945.06
2023-01-29T20:09:08.494Z,99947.69
2023-01-29T20:11:35.102Z,99953.41
2023-01-29T20:14:01.520Z,99962.63
2023-01-29T20:16:28.369Z,99952.88
2023-01-29T20:18:54.842Z,99948.25
2023-01-29T20:21:42.189Z,99936.66
2023-01-29T20:24:12.374Z,99939.16
2023-01-29T20:26:39.008Z,99935.19
2023-01-29T20:29:06.382Z,99938.31
2023-01-29T20:31:32.912Z,99938.31
2023-01-29T20:33:59.592Z,99935.19
2023-01-29T20:36:26.030Z,99922.41
2023-01-29T20:38:52.507Z,99917.84
2023-01-29T20:41:19.632Z,99917.31
2023-01-29T20:43:47.165Z,99919.22
2023-01-29T20:46:14.042Z,99913.03
2023-01-29T20:48:41.923Z,99912.19
2023-01-29T20:51:15.110Z,99896.25
2023-01-29T20:53:46.013Z,99892.22
2023-01-29T20:56:14.081Z,99892.94
2023-01-29T20:58:43.714Z,99888.50
2023-01-29T21:01:12.889Z,99879.84
2023-01-29T21:03:39.934Z,99867.38
2023-01-29T21:06:08.536Z,99852.28
2023-01-29T21:08:36.521Z,99838.84
2023-01-29T21:11:04.340Z,99842.38
2023-01-29T21:13:31.117Z,99843.22
2023-01-29T21:15:58.155Z,99837.03
2023-01-29T21:18:26.513Z,99836.31
2023-01-29T21:20:54.138Z,99845.81
2023-01-29T21:23:21.187Z,99840.53
2023-01-29T21:25:48.071Z,99850.00
2023-01-29T21:28:15.412Z,99848.97
2023-01-29T21:30:41.904Z,99852.72
2023-01-29T21:33:08.461Z,99840.47
2023-01-29T21:35:36.872Z,99829.78
2023-01-29T21:38:04.740Z,99820.97
2023-01-29T21:40:31.213Z,99826.66
2023-01-29T21:43:13.204Z,99831.75
2023-01-29T21:45:40.799Z,99828.28
2023-01-29T21:48:10.523Z,99812.28
2023-01-29T21:50:37.814Z,99808.97
2023-01-29T21:53:04.688Z,99807.91
2023-01-29T21:55:32.334Z,99812.16
2023-01-29T21:58:00.166Z,99812.34
2023-01-29T22:00:26.698Z,99814.50
2023-01-29T22:02:53.353Z,99816.75
2023-01-29T22:05:20.522Z,99811.94
2023-01-29T22:07:48.352Z,99818.16
2023-01-29T22:10:17.108Z,99818.03
2023-01-29T22:12:44.615Z,99804.94
2023-01-29T22:15:11.942Z,99795.22
2023-01-29T22:17:41.097Z,99787.66
2023-01-29T22:20:13.984Z,99803.50
2023-01-29T22:22:41.088Z,99804.28
2023-01-29T22:25:08.245Z,99810.28
2023-01-29T22:27:34.942Z,99807.47
2023-01-29T22:30:01.455Z,99803.88
2023-01-29T22:32:28.134Z,99795.94
2023-01-29T22:34:54.695Z,99799.41
2023-01-29T22:37:21.081Z,99802.25
2023-01-29T22:39:47.656Z,99813.59
2023-01-29T22:42:14.157Z,99825.00
2023-01-29T22:44:40.573Z,99821.84
2023-01-29T22:47:07.140Z,99819.84
2023-01-29T22:49:33.541Z,99818.19
2023-01-29T22:52:26.495Z,99814.28
2023-01-29T22:54:53.368Z,99802.81
2023-01-29T22:57:19.862Z,99795.97
2023-01-29T22:59:46.262Z,99795.13
2023-01-29T23:02:12.720Z,99800.88
2023-01-29T23:04:39.331Z,99804.00
2023-01-29T23:07:05.767Z,99808.28
2023-01-29T23:09:32.377Z,99810.66
2023-01-29T23:11:58.831Z,99805.13
2023-01-29T23:14:25.306Z,99796.31
2023-01-29T23:16:51.834Z,99792.06
2023-01-29T23:19:18.359Z,99801.72
2023-01-29T23:21:44.742Z,99787.16
2023-01-29T23:24:11.409Z,99771.31
2023-01-29T23:26:56.803Z,99774.72
2023-01-29T23:29:23.099Z,99782.59
2023-01-29T23:31:49.779Z,99777.19
2023-01-29T23:34:16.400Z,99770.03
2023-01-29T23:36:43.298Z,99756.22
2023-01-29T23:39:10.380Z,99734.81
2023-01-29T23:41:38.138Z,99732.09
2023-01-29T23:44:05.085Z,99732.03
2023-01-29T23:46:32.084Z,99730.03
2023-01-29T23:48:58.765Z,99708.56
2023-01-29T23:51:25.773Z,99715.72
2023-01-29T23:53:52.422Z,99707.06
2023-01-29T23:56:19.375Z,99698.88
2023-01-29T23:58:46.377Z,99706.00
